sensor_id;sensor_type;location;lat;lon;timestamp;P1;durP1;ratioP1;P2;durP2;ratioP2
31390;SDS011;18022;45.492;11.548;2023-05-20T00:02:15;8.68;;;6.35;;
31390;SDS011;18022;45.492;11.548;2023-05-20T00:04:41;10.65;;;6.65;;
31390;SDS011;18022;45.492;11.548;2023-05-20T00:07:07;7.65;;;5.95;;
31390;SDS011;18022;45.492;11.548;2023-05-20T00:09:34;8.13;;;6.10;;
31390;SDS011;18022;45.492;11.548;2023-05-20T00:12:00;10.27;;;6.57;;
31390;SDS011;18022;45.492;11.548;2023-05-20T00:14:26;7.28;;;6.00;;
31390;SDS011;18022;45.492;11.548;2023-05-20T00:16:52;10.50;;;6.07;;
31390;SDS011;18022;45.492;11.548;2023-05-20T00:19:18;8.95;;;6.72;;
31390;SDS011;18022;45.492;11.548;2023-05-20T00:21:44;13.70;;;6.63;;
31390;SDS011;18022;45.492;11.548;2023-05-20T00:24:10;11.18;;;6.72;;
31390;SDS011;18022;45.492;11.548;2023-05-20T00:26:37;9.25;;;7.03;;
31390;SDS011;18022;45.492;11.548;2023-05-20T00:29:03;7.90;;;6.40;;
31390;SDS011;18022;45.492;11.548;2023-05-20T00:31:29;7.57;;;6.22;;
31390;SDS011;18022;45.492;11.548;2023-05-20T00:33:55;8.13;;;5.57;;
31390;SDS011;18022;45.492;11.548;2023-05-20T00:36:21;11.57;;;6.30;;
31390;SDS011;18022;45.492;11.548;2023-05-20T00:38:47;12.23;;;6.03;;
31390;SDS011;18022;45.492;11.548;2023-05-20T00:41:13;9.13;;;6.60;;
31390;SDS011;18022;45.492;11.548;2023-05-20T00:43:39;9.77;;;5.60;;
31390;SDS011;18022;45.492;11.548;2023-05-20T00:46:05;10.10;;;6.95;;
31390;SDS011;18022;45.492;11.548;2023-05-20T00:48:33;12.18;;;6.82;;
31390;SDS011;18022;45.492;11.548;2023-05-20T00:51:01;10.57;;;6.15;;
31390;SDS011;18022;45.492;11.548;2023-05-20T00:53:28;8.55;;;6.10;;
31390;SDS011;18022;45.492;11.548;2023-05-20T00:55:55;8.45;;;6.38;;
31390;SDS011;18022;45.492;11.548;2023-05-20T00:58:21;8.02;;;6.18;;
31390;SDS011;18022;45.492;11.548;2023-05-20T01:00:47;8.52;;;6.63;;
31390;SDS011;18022;45.492;11.548;2023-05-20T01:03:14;7.97;;;6.07;;
31390;SDS011;18022;45.492;11.548;2023-05-20T01:05:40;8.53;;;6.20;;
31390;SDS011;18022;45.492;11.548;2023-05-20T01:08:06;6.97;;;5.70;;
31390;SDS011;18022;45.492;11.548;2023-05-20T01:10:32;9.57;;;6.50;;
31390;SDS011;18022;45.492;11.548;2023-05-20T01:13:00;9.85;;;6.43;;
31390;SDS011;18022;45.492;11.548;2023-05-20T01:15:29;8.52;;;6.00;;
31390;SDS011;18022;45.492;11.548;2023-05-20T01:18:00;8.50;;;5.88;;
31390;SDS011;18022;45.492;11.548;2023-05-20T01:20:27;7.80;;;5.93;;
31390;SDS011;18022;45.492;11.548;2023-05-20T01:22:54;8.80;;;6.22;;
31390;SDS011;18022;45.492;11.548;2023-05-20T01:25:21;6.82;;;5.68;;
31390;SDS011;18022;45.492;11.548;2023-05-20T01:27:47;7.72;;;6.00;;
31390;SDS011;18022;45.492;11.548;2023-05-20T01:30:13;8.77;;;6.65;;
31390;SDS011;18022;45.492;11.548;2023-05-20T01:32:42;9.23;;;5.50;;
31390;SDS011;18022;45.492;11.548;2023-05-20T01:35:08;8.85;;;5.82;;
31390;SDS011;18022;45.492;11.548;2023-05-20T01:37:35;6.72;;;5.35;;
31390;SDS011;18022;45.492;11.548;2023-05-20T01:42:29;8.30;;;5.43;;
31390;SDS011;18022;45.492;11.548;2023-05-20T01:44:55;7.55;;;5.38;;
31390;SDS011;18022;45.492;11.548;2023-05-20T01:47:21;12.77;;;6.03;;
31390;SDS011;18022;45.492;11.548;2023-05-20T01:49:47;9.45;;;6.13;;
31390;SDS011;18022;45.492;11.548;2023-05-20T01:52:13;7.53;;;6.10;;
31390;SDS011;18022;45.492;11.548;2023-05-20T01:54:40;14.40;;;5.85;;
31390;SDS011;18022;45.492;11.548;2023-05-20T01:57:06;9.18;;;6.03;;
31390;SDS011;18022;45.492;11.548;2023-05-20T01:59:32;7.38;;;5.53;;
31390;SDS011;18022;45.492;11.548;2023-05-20T02:01:58;7.65;;;5.95;;
31390;SDS011;18022;45.492;11.548;2023-05-20T02:04:24;9.65;;;5.85;;
31390;SDS011;18022;45.492;11.548;2023-05-20T02:06:50;11.05;;;5.72;;
31390;SDS011;18022;45.492;11.548;2023-05-20T02:09:17;6.72;;;5.75;;
31390;SDS011;18022;45.492;11.548;2023-05-20T02:11:43;7.57;;;5.73;;
31390;SDS011;18022;45.492;11.548;2023-05-20T02:14:09;12.93;;;5.88;;
31390;SDS011;18022;45.492;11.548;2023-05-20T02:16:35;9.50;;;6.10;;
31390;SDS011;18022;45.492;11.548;2023-05-20T02:19:01;8.45;;;6.13;;
31390;SDS011;18022;45.492;11.548;2023-05-20T02:21:27;9.85;;;5.85;;
31390;SDS011;18022;45.492;11.548;2023-05-20T02:23:53;7.20;;;5.55;;
31390;SDS011;18022;45.492;11.548;2023-05-20T02:26:19;8.18;;;5.88;;
31390;SDS011;18022;45.492;11.548;2023-05-20T02:28:46;10.63;;;5.85;;
31390;SDS011;18022;45.492;11.548;2023-05-20T02:31:14;7.57;;;6.03;;
31390;SDS011;18022;45.492;11.548;2023-05-20T02:33:40;7.57;;;5.50;;
31390;SDS011;18022;45.492;11.548;2023-05-20T02:36:06;15.02;;;6.15;;
31390;SDS011;18022;45.492;11.548;2023-05-20T02:38:32;8.55;;;5.60;;
31390;SDS011;18022;45.492;11.548;2023-05-20T02:40:58;7.00;;;5.63;;
31390;SDS011;18022;45.492;11.548;2023-05-20T02:43:25;9.00;;;5.85;;
31390;SDS011;18022;45.492;11.548;2023-05-20T02:45:51;10.82;;;5.80;;
31390;SDS011;18022;45.492;11.548;2023-05-20T02:48:17;8.95;;;6.15;;
31390;SDS011;18022;45.492;11.548;2023-05-20T02:50:43;6.38;;;5.70;;
31390;SDS011;18022;45.492;11.548;2023-05-20T02:53:10;8.93;;;5.80;;
31390;SDS011;18022;45.492;11.548;2023-05-20T02:55:36;7.20;;;5.47;;
31390;SDS011;18022;45.492;11.548;2023-05-20T02:58:02;7.07;;;5.32;;
31390;SDS011;18022;45.492;11.548;2023-05-20T03:00:28;8.45;;;5.57;;
31390;SDS011;18022;45.492;11.548;2023-05-20T03:03:04;6.65;;;5.35;;
31390;SDS011;18022;45.492;11.548;2023-05-20T03:05:31;8.45;;;5.57;;
31390;SDS011;18022;45.492;11.548;2023-05-20T03:07:57;7.72;;;6.15;;
31390;SDS011;18022;45.492;11.548;2023-05-20T03:10:25;10.18;;;5.28;;
31390;SDS011;18022;45.492;11.548;2023-05-20T03:12:51;10.13;;;5.25;;
31390;SDS011;18022;45.492;11.548;2023-05-20T03:15:17;9.32;;;5.25;;
31390;SDS011;18022;45.492;11.548;2023-05-20T03:17:43;7.03;;;5.78;;
31390;SDS011;18022;45.492;11.548;2023-05-20T03:20:09;10.15;;;5.85;;
31390;SDS011;18022;45.492;11.548;2023-05-20T03:22:37;7.93;;;6.00;;
31390;SDS011;18022;45.492;11.548;2023-05-20T03:25:04;8.23;;;5.57;;
31390;SDS011;18022;45.492;11.548;2023-05-20T03:27:30;8.20;;;5.07;;
31390;SDS011;18022;45.492;11.548;2023-05-20T03:29:56;7.07;;;5.18;;
31390;SDS011;18022;45.492;11.548;2023-05-20T03:32:22;7.25;;;5.25;;
31390;SDS011;18022;45.492;11.548;2023-05-20T03:34:48;10.27;;;5.22;;
31390;SDS011;18022;45.492;11.548;2023-05-20T03:37:14;7.05;;;5.03;;
31390;SDS011;18022;45.492;11.548;2023-05-20T03:39:40;7.00;;;5.40;;
31390;SDS011;18022;45.492;11.548;2023-05-20T03:42:06;6.05;;;5.40;;
31390;SDS011;18022;45.492;11.548;2023-05-20T03:44:32;10.25;;;5.45;;
31390;SDS011;18022;45.492;11.548;2023-05-20T03:46:58;6.45;;;5.60;;
31390;SDS011;18022;45.492;11.548;2023-05-20T03:49:24;6.35;;;5.32;;
31390;SDS011;18022;45.492;11.548;2023-05-20T03:51:50;7.38;;;5.78;;
31390;SDS011;18022;45.492;11.548;2023-05-20T03:54:16;7.30;;;5.82;;
31390;SDS011;18022;45.492;11.548;2023-05-20T03:56:42;6.45;;;4.88;;
31390;SDS011;18022;45.492;11.548;2023-05-20T03:59:10;6.28;;;5.20;;
31390;SDS011;18022;45.492;11.548;2023-05-20T04:01:37;15.95;;;5.50;;
31390;SDS011;18022;45.492;11.548;2023-05-20T04:04:03;7.85;;;5.32;;
31390;SDS011;18022;45.492;11.548;2023-05-20T04:06:29;5.97;;;5.22;;
31390;SDS011;18022;45.492;11.548;2023-05-20T04:08:55;10.43;;;5.72;;
31390;SDS011;18022;45.492;11.548;2023-05-20T04:11:21;8.50;;;5.57;;
31390;SDS011;18022;45.492;11.548;2023-05-20T04:13:48;7.10;;;5.35;;
31390;SDS011;18022;45.492;11.548;2023-05-20T04:16:14;8.05;;;4.85;;
31390;SDS011;18022;45.492;11.548;2023-05-20T04:18:40;9.93;;;5.50;;
31390;SDS011;18022;45.492;11.548;2023-05-20T04:21:10;5.68;;;4.95;;
31390;SDS011;18022;45.492;11.548;2023-05-20T04:23:36;7.03;;;5.53;;
31390;SDS011;18022;45.492;11.548;2023-05-20T04:26:02;9.27;;;5.35;;
31390;SDS011;18022;45.492;11.548;2023-05-20T04:28:28;8.25;;;5.32;;
31390;SDS011;18022;45.492;11.548;2023-05-20T04:30:58;6.17;;;5.23;;
31390;SDS011;18022;45.492;11.548;2023-05-20T04:33:25;9.00;;;6.15;;
31390;SDS011;18022;45.492;11.548;2023-05-20T04:35:51;6.13;;;5.30;;
31390;SDS011;18022;45.492;11.548;2023-05-20T04:38:17;8.23;;;5.15;;
31390;SDS011;18022;45.492;11.548;2023-05-20T04:40:43;8.13;;;5.18;;
31390;SDS011;18022;45.492;11.548;2023-05-20T04:43:10;7.68;;;5.05;;
31390;SDS011;18022;45.492;11.548;2023-05-20T04:45:36;5.72;;;5.13;;
31390;SDS011;18022;45.492;11.548;2023-05-20T04:48:02;6.05;;;5.25;;
31390;SDS011;18022;45.492;11.548;2023-05-20T04:50:29;5.70;;;4.65;;
31390;SDS011;18022;45.492;11.548;2023-05-20T04:52:55;6.70;;;5.25;;
31390;SDS011;18022;45.492;11.548;2023-05-20T04:55:22;7.60;;;5.53;;
31390;SDS011;18022;45.492;11.548;2023-05-20T04:57:49;6.53;;;4.97;;
31390;SDS011;18022;45.492;11.548;2023-05-20T05:00:15;8.57;;;5.32;;
31390;SDS011;18022;45.492;11.548;2023-05-20T05:02:42;5.40;;;4.90;;
31390;SDS011;18022;45.492;11.548;2023-05-20T05:05:08;9.05;;;5.15;;
31390;SDS011;18022;45.492;11.548;2023-05-20T05:07:34;6.30;;;5.10;;
31390;SDS011;18022;45.492;11.548;2023-05-20T05:10:00;7.63;;;4.95;;
31390;SDS011;18022;45.492;11.548;2023-05-20T05:12:26;8.88;;;5.63;;
31390;SDS011;18022;45.492;11.548;2023-05-20T05:14:52;6.55;;;5.28;;
31390;SDS011;18022;45.492;11.548;2023-05-20T05:17:18;5.78;;;4.90;;
31390;SDS011;18022;45.492;11.548;2023-05-20T05:19:44;5.75;;;4.68;;
31390;SDS011;18022;45.492;11.548;2023-05-20T05:22:10;4.97;;;4.45;;
31390;SDS011;18022;45.492;11.548;2023-05-20T05:24:37;5.53;;;4.97;;
31390;SDS011;18022;45.492;11.548;2023-05-20T05:27:03;5.70;;;5.10;;
31390;SDS011;18022;45.492;11.548;2023-05-20T05:29:29;5.82;;;5.22;;
31390;SDS011;18022;45.492;11.548;2023-05-20T05:31:55;7.85;;;5.03;;
31390;SDS011;18022;45.492;11.548;2023-05-20T05:34:21;6.47;;;4.55;;
31390;SDS011;18022;45.492;11.548;2023-05-20T05:36:47;8.25;;;4.40;;
31390;SDS011;18022;45.492;11.548;2023-05-20T05:39:13;5.97;;;4.57;;
31390;SDS011;18022;45.492;11.548;2023-05-20T05:41:39;6.72;;;5.20;;
31390;SDS011;18022;45.492;11.548;2023-05-20T05:44:05;8.32;;;5.00;;
31390;SDS011;18022;45.492;11.548;2023-05-20T05:46:31;7.25;;;5.18;;
31390;SDS011;18022;45.492;11.548;2023-05-20T05:48:57;5.47;;;4.93;;
31390;SDS011;18022;45.492;11.548;2023-05-20T05:51:23;7.47;;;5.60;;
31390;SDS011;18022;45.492;11.548;2023-05-20T05:53:51;6.20;;;5.03;;
31390;SDS011;18022;45.492;11.548;2023-05-20T05:56:19;6.20;;;4.78;;
31390;SDS011;18022;45.492;11.548;2023-05-20T05:58:45;7.32;;;4.20;;
31390;SDS011;18022;45.492;11.548;2023-05-20T06:01:12;5.35;;;4.70;;
31390;SDS011;18022;45.492;11.548;2023-05-20T06:03:38;7.78;;;4.65;;
31390;SDS011;18022;45.492;11.548;2023-05-20T06:06:04;6.95;;;4.88;;
31390;SDS011;18022;45.492;11.548;2023-05-20T06:08:30;5.15;;;4.65;;
31390;SDS011;18022;45.492;11.548;2023-05-20T06:10:56;6.45;;;4.40;;
31390;SDS011;18022;45.492;11.548;2023-05-20T06:13:22;5.18;;;4.45;;
31390;SDS011;18022;45.492;11.548;2023-05-20T06:15:48;6.25;;;4.60;;
31390;SDS011;18022;45.492;11.548;2023-05-20T06:18:15;4.63;;;4.22;;
31390;SDS011;18022;45.492;11.548;2023-05-20T06:20:41;4.72;;;4.00;;
31390;SDS011;18022;45.492;11.548;2023-05-20T06:23:07;4.57;;;3.88;;
31390;SDS011;18022;45.492;11.548;2023-05-20T06:25:33;4.50;;;4.05;;
31390;SDS011;18022;45.492;11.548;2023-05-20T06:27:59;5.13;;;3.85;;
31390;SDS011;18022;45.492;11.548;2023-05-20T06:30:25;5.35;;;3.92;;
31390;SDS011;18022;45.492;11.548;2023-05-20T06:32:51;5.80;;;4.35;;
31390;SDS011;18022;45.492;11.548;2023-05-20T06:35:17;4.28;;;3.88;;
31390;SDS011;18022;45.492;11.548;2023-05-20T06:37:43;4.60;;;4.20;;
31390;SDS011;18022;45.492;11.548;2023-05-20T06:40:09;4.45;;;4.05;;
31390;SDS011;18022;45.492;11.548;2023-05-20T06:42:35;4.75;;;4.28;;
31390;SDS011;18022;45.492;11.548;2023-05-20T06:45:01;5.43;;;4.45;;
31390;SDS011;18022;45.492;11.548;2023-05-20T06:47:27;6.10;;;4.30;;
31390;SDS011;18022;45.492;11.548;2023-05-20T06:49:53;7.85;;;4.25;;
31390;SDS011;18022;45.492;11.548;2023-05-20T06:52:19;5.60;;;4.28;;
31390;SDS011;18022;45.492;11.548;2023-05-20T06:54:45;3.95;;;3.55;;
31390;SDS011;18022;45.492;11.548;2023-05-20T06:57:11;7.38;;;3.80;;
31390;SDS011;18022;45.492;11.548;2023-05-20T06:59:37;11.15;;;4.03;;
31390;SDS011;18022;45.492;11.548;2023-05-20T07:02:03;10.77;;;4.07;;
31390;SDS011;18022;45.492;11.548;2023-05-20T07:04:30;7.68;;;3.55;;
31390;SDS011;18022;45.492;11.548;2023-05-20T07:06:56;4.28;;;3.78;;
31390;SDS011;18022;45.492;11.548;2023-05-20T07:09:22;4.75;;;3.78;;
31390;SDS011;18022;45.492;11.548;2023-05-20T07:11:48;6.10;;;3.60;;
31390;SDS011;18022;45.492;11.548;2023-05-20T07:14:14;4.00;;;3.47;;
31390;SDS011;18022;45.492;11.548;2023-05-20T07:16:40;4.20;;;3.40;;
31390;SDS011;18022;45.492;11.548;2023-05-20T07:19:06;6.55;;;3.60;;
31390;SDS011;18022;45.492;11.548;2023-05-20T07:21:32;6.43;;;3.55;;
31390;SDS011;18022;45.492;11.548;2023-05-20T07:23:58;5.07;;;3.88;;
31390;SDS011;18022;45.492;11.548;2023-05-20T07:26:24;6.35;;;3.83;;
31390;SDS011;18022;45.492;11.548;2023-05-20T07:28:50;3.72;;;3.40;;
31390;SDS011;18022;45.492;11.548;2023-05-20T07:31:17;5.65;;;3.92;;
31390;SDS011;18022;45.492;11.548;2023-05-20T07:33:43;10.82;;;3.95;;
31390;SDS011;18022;45.492;11.548;2023-05-20T07:36:09;4.43;;;3.95;;
31390;SDS011;18022;45.492;11.548;2023-05-20T07:38:35;5.60;;;4.20;;
31390;SDS011;18022;45.492;11.548;2023-05-20T07:41:01;6.10;;;4.10;;
31390;SDS011;18022;45.492;11.548;2023-05-20T07:43:27;4.30;;;3.78;;
31390;SDS011;18022;45.492;11.548;2023-05-20T07:45:53;4.65;;;4.22;;
31390;SDS011;18022;45.492;11.548;2023-05-20T07:48:19;5.03;;;4.05;;
31390;SDS011;18022;45.492;11.548;2023-05-20T07:50:45;7.05;;;4.65;;
31390;SDS011;18022;45.492;11.548;2023-05-20T07:53:12;5.53;;;4.80;;
31390;SDS011;18022;45.492;11.548;2023-05-20T07:55:38;7.00;;;4.97;;
31390;SDS011;18022;45.492;11.548;2023-05-20T07:58:04;6.55;;;4.55;;
31390;SDS011;18022;45.492;11.548;2023-05-20T08:00:30;8.27;;;4.93;;
31390;SDS011;18022;45.492;11.548;2023-05-20T08:02:56;6.57;;;4.95;;
31390;SDS011;18022;45.492;11.548;2023-05-20T08:05:22;8.57;;;4.82;;
31390;SDS011;18022;45.492;11.548;2023-05-20T08:07:48;10.10;;;4.50;;
31390;SDS011;18022;45.492;11.548;2023-05-20T08:10:14;11.25;;;6.07;;
31390;SDS011;18022;45.492;11.548;2023-05-20T08:12:40;6.43;;;5.10;;
31390;SDS011;18022;45.492;11.548;2023-05-20T08:15:06;7.72;;;5.50;;
31390;SDS011;18022;45.492;11.548;2023-05-20T08:17:32;7.97;;;5.85;;
31390;SDS011;18022;45.492;11.548;2023-05-20T08:19:59;8.43;;;6.03;;
31390;SDS011;18022;45.492;11.548;2023-05-20T08:22:25;7.15;;;6.00;;
31390;SDS011;18022;45.492;11.548;2023-05-20T08:24:51;9.20;;;6.45;;
31390;SDS011;18022;45.492;11.548;2023-05-20T08:27:17;9.25;;;6.82;;
31390;SDS011;18022;45.492;11.548;2023-05-20T08:29:44;9.95;;;6.97;;
31390;SDS011;18022;45.492;11.548;2023-05-20T08:32:10;10.20;;;6.70;;
31390;SDS011;18022;45.492;11.548;2023-05-20T08:34:36;10.68;;;7.22;;
31390;SDS011;18022;45.492;11.548;2023-05-20T08:37:02;8.30;;;7.38;;
31390;SDS011;18022;45.492;11.548;2023-05-20T08:39:28;14.90;;;7.20;;
31390;SDS011;18022;45.492;11.548;2023-05-20T08:41:54;13.00;;;7.55;;
31390;SDS011;18022;45.492;11.548;2023-05-20T08:44:20;8.10;;;7.25;;
31390;SDS011;18022;45.492;11.548;2023-05-20T08:46:47;12.32;;;7.97;;
31390;SDS011;18022;45.492;11.548;2023-05-20T08:49:13;9.10;;;7.95;;
31390;SDS011;18022;45.492;11.548;2023-05-20T08:51:40;10.73;;;7.55;;
31390;SDS011;18022;45.492;11.548;2023-05-20T08:54:07;10.80;;;8.80;;
31390;SDS011;18022;45.492;11.548;2023-05-20T08:56:33;8.50;;;7.60;;
31390;SDS011;18022;45.492;11.548;2023-05-20T08:59:00;11.55;;;7.97;;
31390;SDS011;18022;45.492;11.548;2023-05-20T09:01:26;10.07;;;8.10;;
31390;SDS011;18022;45.492;11.548;2023-05-20T09:03:52;10.25;;;8.18;;
31390;SDS011;18022;45.492;11.548;2023-05-20T09:06:18;11.07;;;8.93;;
31390;SDS011;18022;45.492;11.548;2023-05-20T09:08:47;9.65;;;8.65;;
31390;SDS011;18022;45.492;11.548;2023-05-20T09:11:13;11.15;;;9.18;;
31390;SDS011;18022;45.492;11.548;2023-05-20T09:13:39;14.48;;;9.43;;
31390;SDS011;18022;45.492;11.548;2023-05-20T09:16:05;10.90;;;8.45;;
31390;SDS011;18022;45.492;11.548;2023-05-20T09:18:31;11.23;;;9.00;;
31390;SDS011;18022;45.492;11.548;2023-05-20T09:21:03;10.88;;;8.98;;
31390;SDS011;18022;45.492;11.548;2023-05-20T09:23:30;10.60;;;8.57;;
31390;SDS011;18022;45.492;11.548;2023-05-20T09:25:59;10.88;;;9.60;;
31390;SDS011;18022;45.492;11.548;2023-05-20T09:28:26;10.70;;;9.13;;
31390;SDS011;18022;45.492;11.548;2023-05-20T09:30:59;12.95;;;9.68;;
31390;SDS011;18022;45.492;11.548;2023-05-20T09:33:29;15.60;;;10.10;;
31390;SDS011;18022;45.492;11.548;2023-05-20T09:36:08;14.27;;;10.32;;
31390;SDS011;18022;45.492;11.548;2023-05-20T09:38:37;10.68;;;9.45;;
31390;SDS011;18022;45.492;11.548;2023-05-20T09:41:08;10.75;;;9.25;;
31390;SDS011;18022;45.492;11.548;2023-05-20T09:43:35;11.93;;;9.75;;
31390;SDS011;18022;45.492;11.548;2023-05-20T09:46:01;13.18;;;10.15;;
31390;SDS011;18022;45.492;11.548;2023-05-20T09:48:28;14.52;;;10.57;;
31390;SDS011;18022;45.492;11.548;2023-05-20T09:50:57;11.68;;;10.23;;
31390;SDS011;18022;45.492;11.548;2023-05-20T09:53:27;13.07;;;10.57;;
31390;SDS011;18022;45.492;11.548;2023-05-20T09:55:53;10.82;;;9.73;;
31390;SDS011;18022;45.492;11.548;2023-05-20T09:58:19;11.63;;;10.38;;
31390;SDS011;18022;45.492;11.548;2023-05-20T10:00:45;11.52;;;10.32;;
31390;SDS011;18022;45.492;11.548;2023-05-20T10:03:12;10.80;;;9.70;;
31390;SDS011;18022;45.492;11.548;2023-05-20T10:05:39;12.77;;;10.02;;
31390;SDS011;18022;45.492;11.548;2023-05-20T10:18:58;11.65;;;9.70;;
31390;SDS011;18022;45.492;11.548;2023-05-20T10:21:26;10.68;;;9.43;;
31390;SDS011;18022;45.492;11.548;2023-05-20T10:23:52;10.07;;;8.75;;
31390;SDS011;18022;45.492;11.548;2023-05-20T10:26:18;11.30;;;8.93;;
31390;SDS011;18022;45.492;11.548;2023-05-20T10:31:21;11.75;;;9.50;;
31390;SDS011;18022;45.492;11.548;2023-05-20T10:33:47;9.82;;;8.65;;
31390;SDS011;18022;45.492;11.548;2023-05-20T10:36:24;13.45;;;10.73;;
31390;SDS011;18022;45.492;11.548;2023-05-20T10:38:54;11.27;;;9.60;;
31390;SDS011;18022;45.492;11.548;2023-05-20T10:41:27;11.40;;;10.13;;
31390;SDS011;18022;45.492;11.548;2023-05-20T10:44:03;11.93;;;9.15;;
31390;SDS011;18022;45.492;11.548;2023-05-20T10:46:30;12.30;;;9.75;;
31390;SDS011;18022;45.492;11.548;2023-05-20T10:48:56;10.80;;;9.20;;
31390;SDS011;18022;45.492;11.548;2023-05-20T10:51:22;11.88;;;9.35;;
31390;SDS011;18022;45.492;11.548;2023-05-20T10:53:51;12.20;;;10.95;;
31390;SDS011;18022;45.492;11.548;2023-05-20T10:56:21;12.18;;;10.35;;
31390;SDS011;18022;45.492;11.548;2023-05-20T10:58:47;12.75;;;10.50;;
31390;SDS011;18022;45.492;11.548;2023-05-20T11:01:14;15.70;;;11.13;;
31390;SDS011;18022;45.492;11.548;2023-05-20T11:03:40;16.50;;;12.20;;
31390;SDS011;18022;45.492;11.548;2023-05-20T11:06:11;15.40;;;11.95;;
31390;SDS011;18022;45.492;11.548;2023-05-20T11:08:37;13.00;;;11.55;;
31390;SDS011;18022;45.492;11.548;2023-05-20T11:11:03;14.23;;;11.73;;
31390;SDS011;18022;45.492;11.548;2023-05-20T11:13:30;16.63;;;12.07;;
31390;SDS011;18022;45.492;11.548;2023-05-20T11:15:56;14.32;;;11.35;;
31390;SDS011;18022;45.492;11.548;2023-05-20T11:18:25;15.82;;;11.85;;
31390;SDS011;18022;45.492;11.548;2023-05-20T11:20:54;15.75;;;11.98;;
31390;SDS011;18022;45.492;11.548;2023-05-20T11:23:20;15.73;;;11.82;;
31390;SDS011;18022;45.492;11.548;2023-05-20T11:25:51;17.90;;;11.43;;
31390;SDS011;18022;45.492;11.548;2023-05-20T11:28:20;12.98;;;11.07;;
31390;SDS011;18022;45.492;11.548;2023-05-20T11:30:47;13.25;;;11.73;;
31390;SDS011;18022;45.492;11.548;2023-05-20T11:33:14;16.38;;;11.77;;
31390;SDS011;18022;45.492;11.548;2023-05-20T11:35:50;21.02;;;12.48;;
31390;SDS011;18022;45.492;11.548;2023-05-20T11:38:17;14.75;;;12.75;;
31390;SDS011;18022;45.492;11.548;2023-05-20T11:40:44;16.38;;;13.95;;
31390;SDS011;18022;45.492;11.548;2023-05-20T11:43:11;14.65;;;12.98;;
31390;SDS011;18022;45.492;11.548;2023-05-20T11:45:44;21.10;;;14.05;;
31390;SDS011;18022;45.492;11.548;2023-05-20T11:48:10;14.80;;;13.23;;
31390;SDS011;18022;45.492;11.548;2023-05-20T11:50:37;17.25;;;14.77;;
31390;SDS011;18022;45.492;11.548;2023-05-20T11:53:08;19.17;;;16.02;;
31390;SDS011;18022;45.492;11.548;2023-05-20T11:55:45;15.60;;;13.52;;
31390;SDS011;18022;45.492;11.548;2023-05-20T11:58:14;19.23;;;14.18;;
31390;SDS011;18022;45.492;11.548;2023-05-20T12:00:40;14.43;;;12.65;;
31390;SDS011;18022;45.492;11.548;2023-05-20T12:03:06;19.63;;;13.70;;
31390;SDS011;18022;45.492;11.548;2023-05-20T12:05:32;15.30;;;13.70;;
31390;SDS011;18022;45.492;11.548;2023-05-20T12:07:58;17.83;;;13.65;;
31390;SDS011;18022;45.492;11.548;2023-05-20T12:10:24;16.05;;;13.68;;
31390;SDS011;18022;45.492;11.548;2023-05-20T12:12:50;16.95;;;14.70;;
31390;SDS011;18022;45.492;11.548;2023-05-20T12:15:16;17.90;;;14.65;;
31390;SDS011;18022;45.492;11.548;2023-05-20T12:17:46;16.17;;;14.45;;
31390;SDS011;18022;45.492;11.548;2023-05-20T12:20:13;18.63;;;14.95;;
31390;SDS011;18022;45.492;11.548;2023-05-20T12:22:40;18.05;;;15.05;;
31390;SDS011;18022;45.492;11.548;2023-05-20T12:25:07;17.73;;;14.70;;
31390;SDS011;18022;45.492;11.548;2023-05-20T12:27:33;16.58;;;14.73;;
31390;SDS011;18022;45.492;11.548;2023-05-20T12:29:59;17.45;;;15.20;;
31390;SDS011;18022;45.492;11.548;2023-05-20T12:32:25;18.08;;;15.30;;
31390;SDS011;18022;45.492;11.548;2023-05-20T12:34:51;19.13;;;15.45;;
31390;SDS011;18022;45.492;11.548;2023-05-20T12:37:17;21.17;;;16.10;;
31390;SDS011;18022;45.492;11.548;2023-05-20T12:39:43;19.92;;;16.00;;
31390;SDS011;18022;45.492;11.548;2023-05-20T12:42:10;19.90;;;15.67;;
31390;SDS011;18022;45.492;11.548;2023-05-20T12:44:36;18.73;;;13.75;;
31390;SDS011;18022;45.492;11.548;2023-05-20T12:47:02;16.00;;;13.70;;
31390;SDS011;18022;45.492;11.548;2023-05-20T12:49:28;17.52;;;13.98;;
31390;SDS011;18022;45.492;11.548;2023-05-20T12:51:54;18.13;;;13.82;;
31390;SDS011;18022;45.492;11.548;2023-05-20T12:54:20;18.17;;;14.70;;
31390;SDS011;18022;45.492;11.548;2023-05-20T12:56:46;16.73;;;13.77;;
31390;SDS011;18022;45.492;11.548;2023-05-20T12:59:13;18.48;;;12.40;;
31390;SDS011;18022;45.492;11.548;2023-05-20T13:01:39;20.52;;;14.10;;
31390;SDS011;18022;45.492;11.548;2023-05-20T13:04:05;16.77;;;13.85;;
31390;SDS011;18022;45.492;11.548;2023-05-20T13:06:32;15.38;;;12.95;;
31390;SDS011;18022;45.492;11.548;2023-05-20T13:08:58;17.13;;;13.47;;
31390;SDS011;18022;45.492;11.548;2023-05-20T13:11:24;19.52;;;13.43;;
31390;SDS011;18022;45.492;11.548;2023-05-20T13:13:50;16.95;;;14.75;;
31390;SDS011;18022;45.492;11.548;2023-05-20T13:16:16;16.17;;;14.27;;
31390;SDS011;18022;45.492;11.548;2023-05-20T13:18:43;16.90;;;15.07;;
31390;SDS011;18022;45.492;11.548;2023-05-20T13:21:09;20.08;;;16.42;;
31390;SDS011;18022;45.492;11.548;2023-05-20T13:23:35;19.65;;;15.90;;
31390;SDS011;18022;45.492;11.548;2023-05-20T13:26:01;20.63;;;16.00;;
31390;SDS011;18022;45.492;11.548;2023-05-20T13:28:27;18.00;;;15.75;;
31390;SDS011;18022;45.492;11.548;2023-05-20T13:30:53;16.05;;;14.27;;
31390;SDS011;18022;45.492;11.548;2023-05-20T13:33:19;18.63;;;15.73;;
31390;SDS011;18022;45.492;11.548;2023-05-20T13:35:48;19.83;;;16.25;;
31390;SDS011;18022;45.492;11.548;2023-05-20T13:38:14;17.90;;;15.05;;
31390;SDS011;18022;45.492;11.548;2023-05-20T13:40:40;21.02;;;15.45;;
31390;SDS011;18022;45.492;11.548;2023-05-20T13:43:06;18.27;;;15.02;;
31390;SDS011;18022;45.492;11.548;2023-05-20T13:45:32;21.13;;;15.02;;
31390;SDS011;18022;45.492;11.548;2023-05-20T13:47:58;17.42;;;15.40;;
31390;SDS011;18022;45.492;11.548;2023-05-20T13:50:24;19.55;;;15.10;;
31390;SDS011;18022;45.492;11.548;2023-05-20T13:52:50;19.73;;;16.08;;
31390;SDS011;18022;45.492;11.548;2023-05-20T13:55:17;22.88;;;16.30;;
31390;SDS011;18022;45.492;11.548;2023-05-20T13:57:43;20.10;;;16.10;;
31390;SDS011;18022;45.492;11.548;2023-05-20T14:00:09;19.45;;;15.73;;
31390;SDS011;18022;45.492;11.548;2023-05-20T14:02:35;18.60;;;15.82;;
31390;SDS011;18022;45.492;11.548;2023-05-20T14:05:01;21.60;;;16.33;;
31390;SDS011;18022;45.492;11.548;2023-05-20T14:07:28;24.52;;;16.55;;
31390;SDS011;18022;45.492;11.548;2023-05-20T14:09:54;17.90;;;15.98;;
31390;SDS011;18022;45.492;11.548;2023-05-20T14:12:20;20.80;;;16.65;;
31390;SDS011;18022;45.492;11.548;2023-05-20T14:14:48;18.23;;;16.27;;
31390;SDS011;18022;45.492;11.548;2023-05-20T14:17:14;19.60;;;16.45;;
31390;SDS011;18022;45.492;11.548;2023-05-20T14:19:40;21.35;;;16.15;;
31390;SDS011;18022;45.492;11.548;2023-05-20T14:22:06;18.25;;;15.63;;
31390;SDS011;18022;45.492;11.548;2023-05-20T14:24:32;30.25;;;16.70;;
31390;SDS011;18022;45.492;11.548;2023-05-20T14:26:58;24.92;;;17.00;;
31390;SDS011;18022;45.492;11.548;2023-05-20T14:29:24;18.42;;;15.65;;
31390;SDS011;18022;45.492;11.548;2023-05-20T14:31:50;21.60;;;17.00;;
31390;SDS011;18022;45.492;11.548;2023-05-20T14:34:16;20.25;;;16.83;;
31390;SDS011;18022;45.492;11.548;2023-05-20T14:36:42;19.25;;;16.00;;